首页
METAR-TAF:

METAR-TAF

机场 :

拉瓜地亞機場

纽约 / 拉瓜地亞, 紐約州, 美国

纬度: 40-46-45N, 经度: 073-52-48W, 海拔: 6米

当前天气观测

该预报发布于15分钟前的21:51 UTC
风速6节,风向南转南东
温度 17°C
湿度 34%
气压 1018 hPa
能見度: 16.1公里
散云层高于25000英尺

METAR: KLGA 152151Z 16006KT 10SM SCT250 17/01 A3007 RMK AO2 SLP182 T01720011

时间: 18:06 (22:06 UTC)

预报

该预报发布于2小时和32分钟前的19:34 UTC
预报有效从15日的 20点(UTC)到 16日的 24点(UTC)
风速5节,风向北转西北
能見度: 10公里
散云层高于25000英尺
从 15日的 2100点(UTC)
风速6节,风向
能見度: 10公里
散云层高于25000英尺
从 16日的 0800点(UTC)
风速5节,风向东南
能見度: 10公里
多云层高于25000英尺
从 16日的 1200点(UTC)
风速8节,风向东南
能見度: 10公里
散云层高于4000英尺
多云层高于14000英尺
从 16日的 1500点(UTC)
风速13节,风向东南,有时为22节阵风
能見度: 10公里
多云层高于4000英尺
多云层高于7000英尺
从 16日的 1900点(UTC)
风速13节,风向东南,有时为25节阵风
能見度: 9.7公里
散云层高于2000英尺
阴天层高于4000英尺
小雨
从 16日的 2200点(UTC)
风速14节,风向东南,有时为28节阵风
能見度: 6.4公里
散云层高于800英尺
多云层高于2000英尺
雨, 轻雾

TAF: KLGA 151934Z 1520/1624 34005KT P6SM SCT250 FM152100 19006KT P6SM SCT250 FM160800 14005KT P6SM BKN250 FM161200 13008KT P6SM SCT040 BKN140 FM161500 13013G22KT P6SM BKN040 BKN070 FM161900 13013G25KT 6SM -RA SCT020 OVC040 FM162200 14014G28KT 4SM RA BR SCT008 BKN020

超过4000个机场的气象观测和天气预报(METAR&TAF报告)。

可查询的气象台以黄色和红色小点在地图上表示。

将鼠标移到小点上方,可查看气象台名称。

然后点击查看天气观测和预报。

如需切换地图:点击带黑十字的绿色按钮放大地图;点击带横线的绿色按钮缩小地图;或者点击绿色箭头查看邻近地区的地图。


METAR-TAF: